Skip Navigation LinksHome page > Weather > Current weather Skip Navigation Links

Current Weather

Sarh, Chad

For information only: do not use for flight planning or navigation.
Latest weather
Observation time Tuesday, October 21, 2014 5:00 PM WAT
Local time Tuesday, October 21, 2014 5:40 PM WAT
Flight conditions Visual Meteorological Conditions
Winds
Wind speed calm
Visibility 6.2 mi.
Sky condition
Ceiling unlimited
Cloud layer few clouds 4,000 ft.
Cloud layer few clouds with cumulonimbus 5,000 ft.
Temperature 86°F
Dewpoint 72°F
Altimeter 29.83 in.Hg
Derived measurements
Relative humidity 62%
Heat index 92°F
Density altitude 2548 ft.
METAR FTTA 211600Z 00000KT 9999 FEW040 FEW050CB 30/22 Q1010

Settings

Location code

InnerDrive.Weather 4.0.5399.0 Release CLR 4.0.30319.34014
Copyright ©2014 Inner Drive Technology. All rights reserved. Portions Copyright ©1986-2014 David Braverman.

Find weather

Site navigation


Skip Navigation Links

Place info

Page info

PayPal - The safer, easier way to pay online!

Return home.

Copyright ©2014 Inner Drive Technology. Purveyors of fine, hand-crafted computer software. Page printed 2014-10-21T16:40:09 UTC.